Time;durP1;ratioP1;P1;durP2;ratioP2;P2;SDS_P1;SDS_P2;PMS_P1;PMS_P2;Temp;Humidity;BMP_temperature;BMP_pressure;BME280_temperature;BME280_humidity;BME280_pressure;Samples;Min_cycle;Max_cycle;Signal;HPM_P1;HPM_P2
2021/10/28 00:14:05;;;;;;;36.13;15.73;;;;;;;2.77;100.00;95731.09;10488924;28;19951;-71
2021/10/28 00:19:06;;;;;;;31.45;15.50;;;;;;;2.80;100.00;95738.63;10470471;28;20017;-70
2021/10/28 00:24:10;;;;;;;33.93;15.23;;;;;;;2.74;100.00;95734.13;10447466;28;20468;-74
2021/10/28 00:29:17;;;;;;;34.08;15.63;;;;;;;2.74;100.00;95734.94;10428890;28;20295;-70
2021/10/28 00:34:17;;;;;;;28.30;13.73;;;;;;;2.68;100.00;95734.91;10451636;28;20509;-70
2021/10/28 00:39:18;;;;;;;31.92;15.85;;;;;;;2.74;100.00;95742.09;10439811;28;20024;-71
2021/10/28 00:44:19;;;;;;;27.80;14.45;;;;;;;2.70;100.00;95732.91;10428599;28;20055;-72
2021/10/28 00:49:20;;;;;;;23.70;13.93;;;;;;;2.71;100.00;95722.09;10428431;28;20116;-70
2021/10/28 00:54:23;;;;;;;28.05;14.02;;;;;;;2.74;100.00;95719.03;10469640;28;20137;-71
2021/10/28 00:59:24;;;;;;;31.08;14.32;;;;;;;2.78;100.00;95708.00;10469008;28;20020;-70
2021/10/28 01:04:24;;;;;;;32.58;15.65;;;;;;;2.72;100.00;95707.81;10473895;28;20032;-70
2021/10/28 01:09:25;;;;;;;31.17;14.77;;;;;;;2.55;100.00;95703.84;10451964;28;20029;-70
2021/10/28 01:14:25;;;;;;;27.02;14.85;;;;;;;2.60;100.00;95700.63;10468840;28;20036;-71
2021/10/28 01:19:26;;;;;;;33.28;13.52;;;;;;;2.58;100.00;95702.63;10468789;28;20033;-70
2021/10/28 01:24:26;;;;;;;35.17;16.98;;;;;;;2.53;100.00;95697.94;10462431;28;20040;-71
2021/10/28 01:29:27;;;;;;;36.23;18.23;;;;;;;2.48;100.00;95700.34;10426686;28;20045;-70
2021/10/28 01:34:28;;;;;;;45.33;20.00;;;;;;;2.42;100.00;95699.31;10427064;28;20279;-70
2021/10/28 01:39:29;;;;;;;37.33;18.30;;;;;;;2.39;100.00;95700.53;10455094;28;20116;-70
2021/10/28 01:44:30;;;;;;;35.80;17.20;;;;;;;2.25;100.00;95692.69;10469518;28;20059;-70
2021/10/28 01:49:31;;;;;;;36.40;19.53;;;;;;;2.22;100.00;95693.94;10427088;28;20125;-70
2021/10/28 01:54:31;;;;;;;49.67;20.23;;;;;;;2.09;100.00;95697.31;10447976;28;20267;-70
2021/10/28 01:59:33;;;;;;;40.35;19.73;;;;;;;2.04;100.00;95702.41;10451414;28;20014;-70
2021/10/28 02:04:33;;;;;;;31.13;18.17;;;;;;;2.15;100.00;95701.00;10434841;28;20029;-71
2021/10/28 02:09:35;;;;;;;38.55;20.13;;;;;;;1.99;100.00;95702.97;10486774;28;20021;-69
2021/10/28 02:14:36;;;;;;;32.80;17.60;;;;;;;1.99;100.00;95699.50;10479796;28;20417;-69
2021/10/28 02:19:36;;;;;;;36.33;17.63;;;;;;;2.00;100.00;95682.59;10474806;28;20012;-70
2021/10/28 02:24:36;;;;;;;46.47;21.23;;;;;;;1.88;100.00;95684.97;10475693;28;20267;-70
2021/10/28 02:29:37;;;;;;;35.72;19.13;;;;;;;1.99;100.00;95695.03;10474803;28;20110;-70
2021/10/28 02:34:38;;;;;;;37.40;17.90;;;;;;;2.12;100.00;95681.03;10494060;28;20571;-69
2021/10/28 02:39:38;;;;;;;37.42;18.10;;;;;;;2.24;100.00;95678.63;10474857;28;20025;-70
2021/10/28 02:44:39;;;;;;;34.10;17.13;;;;;;;2.25;100.00;95682.09;10435136;28;20027;-70
2021/10/28 02:49:40;;;;;;;30.30;15.73;;;;;;;2.12;100.00;95691.66;10474229;28;20482;-73
2021/10/28 02:54:40;;;;;;;24.15;14.80;;;;;;;2.08;100.00;95697.50;10474257;28;20020;-70
2021/10/28 02:59:41;;;;;;;25.17;13.37;;;;;;;2.00;100.00;95699.31;10473437;28;20426;-71
2021/10/28 03:04:41;;;;;;;25.75;13.75;;;;;;;2.02;100.00;95709.72;10473902;28;20271;-71
2021/10/28 03:09:42;;;;;;;25.48;12.18;;;;;;;2.07;100.00;95711.81;10449091;28;20025;-71
2021/10/28 03:14:52;;;;;;;24.42;13.13;;;;;;;1.99;100.00;95716.22;10449986;28;20040;-72
2021/10/28 03:25:32;;;;;;;24.65;13.52;;;;;;;1.99;100.00;95724.19;10459299;28;20028;-70
2021/10/28 03:25:41;;;;;;;21.58;13.10;;;;;;;2.05;100.00;95720.78;10449507;28;20029;-71
2021/10/28 03:30:41;;;;;;;21.27;11.55;;;;;;;2.04;100.00;95729.72;10478550;28;20084;-72
2021/10/28 03:35:44;;;;;;;30.45;13.52;;;;;;;1.92;100.00;95728.63;10457691;28;20481;-72
2021/10/28 04:33:16;;;;;;;;;;;;;;;2.02;100.00;95733.59;10457998;28;20044;-71
2021/10/28 04:38:16;;;;;;;22.67;11.63;;;;;;;1.93;100.00;95740.88;10469318;28;19912;-77
2021/10/28 04:43:17;;;;;;;24.65;13.75;;;;;;;1.84;100.00;95750.81;10487632;28;20027;-75
2021/10/28 04:48:17;;;;;;;25.05;14.65;;;;;;;1.84;100.00;95747.31;10469382;28;20028;-72
2021/10/28 04:53:17;;;;;;;25.05;14.90;;;;;;;1.86;100.00;95754.06;10469829;28;20082;-72
2021/10/28 04:58:18;;;;;;;27.13;14.88;;;;;;;1.93;100.00;95754.13;10469766;28;20021;-72
2021/10/28 05:03:18;;;;;;;30.70;12.90;;;;;;;1.96;100.00;95758.22;10468774;28;20032;-72
2021/10/28 05:08:19;;;;;;;28.50;14.45;;;;;;;2.00;100.00;95759.47;10485059;28;20291;-72
2021/10/28 05:13:19;;;;;;;29.10;14.52;;;;;;;1.95;100.00;95764.53;10468655;28;20028;-73
2021/10/28 05:18:23;;;;;;;29.90;14.63;;;;;;;1.98;100.00;95761.50;10466046;28;20017;-72
2021/10/28 05:23:24;;;;;;;32.17;14.50;;;;;;;2.03;100.00;95759.91;10468912;28;20039;-72
2021/10/28 05:28:25;;;;;;;33.20;16.05;;;;;;;2.18;100.00;95764.28;10467324;28;20072;-72
2021/10/28 05:33:26;;;;;;;28.23;15.75;;;;;;;2.31;100.00;95774.97;10467282;28;20111;-72
2021/10/28 05:38:27;;;;;;;31.60;14.60;;;;;;;2.34;100.00;95781.72;10467938;28;20426;-72
2021/10/28 05:43:27;;;;;;;25.77;13.40;;;;;;;2.52;100.00;95783.84;10468199;28;20031;-72
2021/10/28 05:48:27;;;;;;;27.52;14.15;;;;;;;2.61;100.00;95792.47;10426144;28;20374;-72
2021/10/28 05:53:28;;;;;;;113.17;104.67;;;;;;;2.79;100.00;95792.78;10426762;28;20021;-70
2021/10/28 05:58:29;;;;;;;158.05;146.82;;;;;;;2.93;100.00;95791.00;10426129;28;20784;-72
2021/10/28 06:03:30;;;;;;;27.95;16.80;;;;;;;2.93;100.00;95800.78;10425443;28;20092;-71
2021/10/28 06:08:32;;;;;;;42.42;37.13;;;;;;;2.97;100.00;95794.84;10425997;28;20025;-71
2021/10/28 06:13:34;;;;;;;28.42;13.90;;;;;;;3.03;100.00;95796.72;10446780;28;20024;-71
2021/10/28 06:18:38;;;;;;;25.90;16.38;;;;;;;3.17;100.00;95792.28;10466307;28;20067;-72
2021/10/28 06:23:39;;;;;;;31.75;16.90;;;;;;;3.17;100.00;95797.59;10442650;28;20028;-71
2021/10/28 06:28:39;;;;;;;41.97;21.00;;;;;;;3.40;100.00;95786.63;10425630;28;20047;-72
2021/10/28 06:33:47;;;;;;;38.95;18.85;;;;;;;3.66;100.00;95790.31;10438196;28;20033;-71
2021/10/28 06:38:48;;;;;;;39.75;19.13;;;;;;;4.34;100.00;95788.44;10450517;28;20035;-73
2021/10/28 06:43:49;;;;;;;35.08;14.00;;;;;;;5.65;100.00;95771.25;10450751;28;20494;-71
2021/10/28 06:48:49;;;;;;;20.30;12.20;;;;;;;6.59;100.00;95770.44;10449389;28;20017;-71
2021/10/28 07:04:15;;;;;;;55.88;23.30;;;;;;;7.35;100.00;95778.16;10450537;28;20103;-73
2021/10/28 07:09:35;;;;;;;61.70;27.53;;;;;;;8.38;100.00;95767.28;10431930;28;20041;-72
2021/10/28 07:14:36;;;;;;;65.00;29.90;;;;;;;9.52;100.00;95767.75;10449754;28;20767;-71
2021/10/28 07:24:57;;;;;;;54.33;27.43;;;;;;;9.44;100.00;95773.50;10449900;28;20410;-72
2021/10/28 08:33:57;;;;;;;48.33;21.90;;;;;;;10.87;100.00;95747.25;10278455;28;20150;-72
2021/10/28 08:38:58;;;;;;;48.17;23.35;;;;;;;10.98;100.00;95738.28;10290154;28;20041;-76
2021/10/28 08:44:01;;;;;;;36.95;19.38;;;;;;;11.43;100.00;95729.06;10428220;28;20083;-76
2021/10/28 08:49:04;;;;;;;40.28;18.90;;;;;;;11.91;100.00;95720.34;10411364;28;20411;-72
2021/10/28 08:54:47;;;;;;;28.40;16.55;;;;;;;12.44;100.00;95728.56;10444842;28;20096;-78
2021/10/28 09:31:39;;;;;;;30.55;11.07;;;;;;;19.75;50.07;95684.69;10486047;28;20514;-73
2021/10/28 09:47:33;;;;;;;25.73;11.30;;;;;;;26.77;31.86;95652.28;10485854;28;20422;-73
2021/10/28 09:52:35;;;;;;;10.98;6.47;;;;;;;28.00;30.62;95636.56;10472117;28;20016;-71
2021/10/28 10:02:56;;;;;;;11.45;5.70;;;;;;;27.25;31.27;95624.66;10445178;28;20518;-72
2021/10/28 10:07:59;;;;;;;26.02;23.38;;;;;;;28.59;30.55;95620.72;10425929;28;20052;-71
2021/10/28 10:13:00;;;;;;;9.32;5.28;;;;;;;27.45;29.28;95607.00;10451288;28;20097;-72
2021/10/28 10:18:06;;;;;;;10.07;5.28;;;;;;;28.37;28.92;95605.69;10474638;28;20046;-75
2021/10/28 12:21:55;;;;;;;2.90;1.98;;;;;;;15.49;33.75;95484.63;10488728;28;20120;-73
2021/10/28 12:48:59;;;;;;;2.55;2.15;;;;;;;15.47;34.17;95462.41;10388871;28;20029;-72
2021/10/28 15:38:06;;;;;;;15.57;5.68;;;;;;;12.37;43.22;95475.41;10478877;28;20036;-72
2021/10/28 16:24:43;;;;;;;;;;;;;;;10.87;57.65;95513.31;10487621;28;20029;-81
2021/10/28 16:29:43;;;;;;;10.88;5.53;;;;;;;10.44;61.66;95521.25;10450651;28;19917;-76
2021/10/28 16:34:44;;;;;;;13.05;5.57;;;;;;;10.41;62.39;95517.19;10445230;28;20055;-71
2021/10/28 16:39:44;;;;;;;13.02;5.03;;;;;;;10.34;62.29;95516.56;10414889;28;20094;-72
2021/10/28 16:44:45;;;;;;;12.48;5.15;;;;;;;10.34;63.69;95519.25;10447722;28;20028;-73
2021/10/28 16:49:46;;;;;;;13.27;4.78;;;;;;;10.25;65.71;95531.47;10483677;28;20032;-76
2021/10/28 16:54:46;;;;;;;9.93;4.03;;;;;;;10.10;68.90;95534.78;10464839;28;20025;-76
2021/10/28 16:59:47;;;;;;;16.33;4.72;;;;;;;9.90;73.28;95527.28;10435922;28;20392;-73
2021/10/28 17:04:47;;;;;;;11.40;5.75;;;;;;;9.58;78.52;95534.09;10421717;28;20040;-72
2021/10/28 17:09:49;;;;;;;11.98;6.35;;;;;;;9.31;83.47;95533.19;10426404;28;20032;-76
2021/10/28 17:14:49;;;;;;;16.05;7.40;;;;;;;9.03;87.82;95538.38;10463862;28;20032;-72
2021/10/28 17:19:50;;;;;;;19.35;6.35;;;;;;;8.99;89.90;95537.25;10446111;28;20019;-71
2021/10/28 17:24:50;;;;;;;18.00;7.25;;;;;;;8.78;93.12;95541.44;10442111;28;20064;-72
2021/10/28 17:29:51;;;;;;;17.67;6.65;;;;;;;8.71;93.59;95548.84;10464538;28;20064;-72
2021/10/28 17:34:52;;;;;;;11.70;6.45;;;;;;;8.44;99.73;95560.13;10449248;28;20040;-76
2021/10/28 17:39:52;;;;;;;17.77;7.30;;;;;;;8.24;100.00;95557.03;10450254;28;20052;-75
2021/10/28 17:44:56;;;;;;;12.45;5.88;;;;;;;8.26;100.00;95562.94;10465055;28;20024;-76
2021/10/28 17:49:56;;;;;;;19.25;6.15;;;;;;;8.11;100.00;95566.16;10450460;28;20035;-71
2021/10/28 17:54:57;;;;;;;10.45;4.75;;;;;;;8.04;100.00;95564.41;10467150;28;20037;-72
2021/10/28 17:59:58;;;;;;;9.48;5.50;;;;;;;7.99;100.00;95572.31;10466756;28;20036;-75
2021/10/28 18:04:59;;;;;;;10.32;4.88;;;;;;;7.94;100.00;95569.56;10467651;28;20031;-77
2021/10/28 18:09:59;;;;;;;14.23;6.35;;;;;;;8.00;100.00;95576.63;10442374;28;20045;-73
2021/10/28 18:15:00;;;;;;;10.20;5.35;;;;;;;8.09;100.00;95578.94;10460145;28;20036;-73
2021/10/28 18:20:03;;;;;;;14.48;5.53;;;;;;;7.93;100.00;95573.28;10467080;28;20112;-72
2021/10/28 18:25:09;;;;;;;8.48;5.10;;;;;;;7.91;100.00;95578.06;10466368;28;20111;-72
2021/10/28 18:30:12;;;;;;;7.10;4.72;;;;;;;7.84;100.00;95580.88;10449976;28;20041;-73
2021/10/28 18:35:13;;;;;;;8.95;4.93;;;;;;;7.73;100.00;95584.38;10457767;28;20457;-72
2021/10/28 18:40:14;;;;;;;15.07;5.05;;;;;;;7.77;100.00;95584.69;10469699;28;20108;-70
2021/10/28 18:45:15;;;;;;;7.40;4.20;;;;;;;7.72;100.00;95576.53;10473327;28;20016;-72
2021/10/28 18:50:16;;;;;;;12.48;5.22;;;;;;;7.73;100.00;95576.34;10464626;28;20032;-72
2021/10/28 18:55:16;;;;;;;15.90;4.87;;;;;;;7.78;100.00;95572.94;10469288;28;20025;-71
2021/10/28 19:00:17;;;;;;;9.98;5.35;;;;;;;7.83;100.00;95578.44;10486961;28;20274;-72
2021/10/28 19:05:20;;;;;;;11.07;4.95;;;;;;;7.73;100.00;95580.84;10460819;28;20055;-72
2021/10/28 19:10:22;;;;;;;9.13;4.75;;;;;;;7.73;100.00;95578.19;10491892;28;20104;-72
2021/10/28 19:15:22;;;;;;;9.50;4.50;;;;;;;7.67;100.00;95587.97;10466933;28;20024;-72
2021/10/28 19:20:26;;;;;;;7.95;4.32;;;;;;;7.74;100.00;95595.88;10447513;28;20391;-72
2021/10/28 19:25:26;;;;;;;11.60;5.32;;;;;;;7.61;100.00;95600.41;10448265;28;20040;-72
2021/10/28 19:30:34;;;;;;;14.75;5.00;;;;;;;7.50;100.00;95601.22;10447382;28;20067;-72
2021/10/28 19:35:37;;;;;;;12.30;5.25;;;;;;;7.35;100.00;95604.34;10482176;28;20090;-72
2021/10/28 19:40:51;;;;;;;9.07;5.22;;;;;;;7.32;100.00;95605.63;10472255;28;20032;-72
2021/10/28 19:50:52;;;;;;;11.50;4.67;;;;;;;7.23;100.00;95615.03;10489771;28;20669;-73
2021/10/28 19:55:53;;;;;;;9.30;5.07;;;;;;;7.11;100.00;95614.19;10472170;28;20279;-72
2021/10/28 20:01:00;;;;;;;12.07;5.38;;;;;;;7.21;100.00;95619.78;10486930;28;20417;-73
2021/10/28 20:21:39;;;;;;;8.82;4.43;;;;;;;6.88;100.00;95613.09;10489458;28;20613;-72
2021/10/28 20:26:40;;;;;;;13.75;5.95;;;;;;;6.83;100.00;95612.97;10472016;28;20056;-71
2021/10/28 20:31:41;;;;;;;8.05;5.00;;;;;;;6.59;100.00;95615.53;10471336;28;20102;-72
2021/10/28 20:42:00;;;;;;;9.93;5.32;;;;;;;6.54;100.00;95601.25;10487972;28;20017;-71
2021/10/28 20:47:02;;;;;;;11.15;5.43;;;;;;;6.64;100.00;95604.16;10470651;28;20029;-71
2021/10/28 20:52:03;;;;;;;12.07;5.78;;;;;;;6.68;100.00;95600.00;10457447;28;20409;-72
2021/10/28 20:57:05;;;;;;;12.18;4.93;;;;;;;6.66;100.00;95594.91;10470161;28;20028;-71
2021/10/28 21:02:05;;;;;;;9.07;5.40;;;;;;;6.66;100.00;95599.44;10470917;28;20027;-71
2021/10/28 21:07:05;;;;;;;10.57;6.20;;;;;;;6.78;100.00;95591.44;10488353;28;20021;-71
2021/10/28 21:12:06;;;;;;;21.00;7.27;;;;;;;6.75;100.00;95591.91;10471738;28;20028;-71
2021/10/28 21:17:07;;;;;;;10.52;5.60;;;;;;;6.82;100.00;95588.09;10488143;28;20330;-71
2021/10/28 21:22:07;;;;;;;11.77;5.60;;;;;;;6.78;100.00;95584.25;10440148;28;20028;-69
2021/10/28 21:27:08;;;;;;;9.87;5.47;;;;;;;6.70;100.00;95589.09;10471073;28;20549;-70
2021/10/28 21:32:11;;;;;;;14.43;6.95;;;;;;;6.73;100.00;95591.34;10488802;28;20294;-71
2021/10/28 21:37:15;;;;;;;10.63;5.57;;;;;;;6.61;100.00;95585.94;10470312;28;20025;-72
2021/10/28 21:42:15;;;;;;;14.40;6.65;;;;;;;6.63;100.00;95589.22;10469394;28;20032;-71
2021/10/28 21:47:17;;;;;;;14.07;5.72;;;;;;;6.65;100.00;95589.78;10468801;28;20020;-70
2021/10/28 21:52:22;;;;;;;13.68;5.63;;;;;;;6.57;100.00;95595.44;10451960;28;20679;-71
2021/10/28 22:29:03;;;;;;;13.03;6.83;;;;;;;6.29;100.00;95586.97;10493677;28;20039;-70
2021/10/28 22:34:05;;;;;;;11.50;5.95;;;;;;;6.19;100.00;95588.53;10475169;28;20032;-70
2021/10/28 22:39:11;;;;;;;17.52;6.78;;;;;;;6.16;100.00;95590.59;10475346;28;20033;-70
2021/10/28 22:44:12;;;;;;;13.50;6.72;;;;;;;6.16;100.00;95585.25;10474667;28;20612;-70
2021/10/28 22:49:15;;;;;;;12.65;6.20;;;;;;;6.01;100.00;95568.81;10474695;28;20028;-71
2021/10/28 22:54:16;;;;;;;14.63;6.95;;;;;;;5.88;100.00;95566.28;10493336;28;20043;-71
2021/10/28 22:59:16;;;;;;;14.52;6.50;;;;;;;5.88;100.00;95572.44;10474196;28;20430;-70
2021/10/28 23:05:15;;;;;;;9.57;5.60;;;;;;;5.97;100.00;95559.59;10456948;28;20024;-71
2021/10/28 23:25:34;;;;;;;11.65;6.25;;;;;;;6.22;100.00;95556.06;10452111;28;20286;-71
2021/10/28 23:30:35;;;;;;;10.98;5.90;;;;;;;6.25;100.00;95552.94;10458820;28;20049;-71
2021/10/28 23:35:36;;;;;;;14.90;7.13;;;;;;;6.10;100.00;95580.84;10431679;28;20029;-72
2021/10/28 23:40:38;;;;;;;11.43;6.68;;;;;;;6.08;100.00;95584.75;10449438;28;20036;-71
2021/10/28 23:45:39;;;;;;;15.98;7.07;;;;;;;5.99;100.00;95590.41;10449326;28;20061;-70
2021/10/28 23:50:39;;;;;;;14.48;7.20;;;;;;;5.97;100.00;95583.63;10431193;28;20120;-72
2021/10/28 23:55:40;;;;;;;13.32;6.70;;;;;;;5.89;100.00;95573.25;10430921;28;20650;-70
